sensor_id;sensor_type;location;lat;lon;timestamp;pressure;altitude;pressure_sealevel;temperature;humidity
113;BME280;45999;48.808;9.182;2023-04-08T00:01:20;98336.84;;;8.07;nan
113;BME280;45999;48.808;9.182;2023-04-08T00:03:47;98339.69;;;8.05;nan
113;BME280;45999;48.808;9.182;2023-04-08T00:06:13;98346.81;;;8.05;nan
113;BME280;45999;48.808;9.182;2023-04-08T00:08:40;98347.63;;;8.05;nan
113;BME280;45999;48.808;9.182;2023-04-08T00:11:06;98336.41;;;8.03;nan
113;BME280;45999;48.808;9.182;2023-04-08T00:13:32;98343.34;;;8.04;nan
113;BME280;45999;48.808;9.182;2023-04-08T00:15:59;98342.16;;;8.13;nan
113;BME280;45999;48.808;9.182;2023-04-08T00:18:26;98339.47;;;8.07;nan
113;BME280;45999;48.808;9.182;2023-04-08T00:20:52;98335.81;;;8.08;nan
113;BME280;45999;48.808;9.182;2023-04-08T00:23:19;98342.97;;;8.07;nan
113;BME280;45999;48.808;9.182;2023-04-08T00:25:45;98345.75;;;7.99;nan
113;BME280;45999;48.808;9.182;2023-04-08T00:28:12;98342.50;;;8.04;nan
113;BME280;45999;48.808;9.182;2023-04-08T00:30:39;98340.06;;;7.96;nan
113;BME280;45999;48.808;9.182;2023-04-08T00:33:05;98333.09;;;7.95;nan
113;BME280;45999;48.808;9.182;2023-04-08T00:35:32;98340.66;;;7.98;nan
113;BME280;45999;48.808;9.182;2023-04-08T00:37:59;98348.59;;;7.98;nan
113;BME280;45999;48.808;9.182;2023-04-08T00:40:25;98344.31;;;7.97;nan
113;BME280;45999;48.808;9.182;2023-04-08T00:42:52;98348.19;;;7.94;nan
113;BME280;45999;48.808;9.182;2023-04-08T00:45:18;98351.22;;;7.91;nan
113;BME280;45999;48.808;9.182;2023-04-08T00:47:45;98349.47;;;8.05;nan
113;BME280;45999;48.808;9.182;2023-04-08T00:50:16;98351.00;;;7.93;nan
113;BME280;45999;48.808;9.182;2023-04-08T00:52:43;98360.44;;;8.02;nan
113;BME280;45999;48.808;9.182;2023-04-08T00:55:09;98355.53;;;7.99;nan
113;BME280;45999;48.808;9.182;2023-04-08T00:57:36;98358.53;;;7.89;nan
113;BME280;45999;48.808;9.182;2023-04-08T01:00:05;98367.91;;;7.92;nan
113;BME280;45999;48.808;9.182;2023-04-08T01:05:27;98358.78;;;7.94;nan
113;BME280;45999;48.808;9.182;2023-04-08T01:07:56;98359.97;;;7.92;nan
113;BME280;45999;48.808;9.182;2023-04-08T01:10:28;98356.06;;;7.88;nan
113;BME280;45999;48.808;9.182;2023-04-08T01:12:58;98355.09;;;7.95;nan
113;BME280;45999;48.808;9.182;2023-04-08T01:15:27;98358.91;;;7.86;nan
113;BME280;45999;48.808;9.182;2023-04-08T01:17:56;98355.84;;;7.83;nan
113;BME280;45999;48.808;9.182;2023-04-08T01:20:25;98349.53;;;7.84;nan
113;BME280;45999;48.808;9.182;2023-04-08T01:25:34;98366.25;;;7.91;nan
113;BME280;45999;48.808;9.182;2023-04-08T01:28:06;98357.53;;;7.90;nan
113;BME280;45999;48.808;9.182;2023-04-08T01:30:34;98361.97;;;7.90;nan
113;BME280;45999;48.808;9.182;2023-04-08T01:33:04;98360.13;;;7.84;nan
113;BME280;45999;48.808;9.182;2023-04-08T01:35:31;98358.53;;;7.89;nan
113;BME280;45999;48.808;9.182;2023-04-08T01:37:59;98353.81;;;7.85;nan
113;BME280;45999;48.808;9.182;2023-04-08T01:40:26;98356.47;;;7.85;nan
113;BME280;45999;48.808;9.182;2023-04-08T01:42:55;98352.75;;;7.79;nan
113;BME280;45999;48.808;9.182;2023-04-08T01:45:22;98352.50;;;7.74;nan
113;BME280;45999;48.808;9.182;2023-04-08T01:47:50;98348.66;;;7.77;nan
113;BME280;45999;48.808;9.182;2023-04-08T01:50:18;98354.19;;;7.75;nan
113;BME280;45999;48.808;9.182;2023-04-08T01:52:47;98355.81;;;7.76;nan
113;BME280;45999;48.808;9.182;2023-04-08T01:55:15;98354.59;;;7.79;nan
113;BME280;45999;48.808;9.182;2023-04-08T01:57:51;98346.44;;;7.74;nan
113;BME280;45999;48.808;9.182;2023-04-08T02:00:22;98354.19;;;7.75;nan
113;BME280;45999;48.808;9.182;2023-04-08T02:02:50;98347.22;;;7.74;nan
113;BME280;45999;48.808;9.182;2023-04-08T02:05:17;98354.56;;;7.72;nan
113;BME280;45999;48.808;9.182;2023-04-08T02:07:46;98357.25;;;7.79;nan
113;BME280;45999;48.808;9.182;2023-04-08T02:10:13;98366.53;;;7.68;nan
113;BME280;45999;48.808;9.182;2023-04-08T02:12:39;98360.63;;;7.66;nan
113;BME280;45999;48.808;9.182;2023-04-08T02:15:07;98360.41;;;7.68;nan
113;BME280;45999;48.808;9.182;2023-04-08T02:17:45;98353.78;;;7.78;nan
113;BME280;45999;48.808;9.182;2023-04-08T02:20:21;98358.78;;;7.67;nan
113;BME280;45999;48.808;9.182;2023-04-08T02:23:08;98353.69;;;7.65;nan
113;BME280;45999;48.808;9.182;2023-04-08T02:25:37;98357.53;;;7.63;nan
113;BME280;45999;48.808;9.182;2023-04-08T02:28:06;98355.72;;;7.63;nan
113;BME280;45999;48.808;9.182;2023-04-08T02:30:36;98356.91;;;7.61;nan
113;BME280;45999;48.808;9.182;2023-04-08T02:33:03;98356.91;;;7.61;nan
113;BME280;45999;48.808;9.182;2023-04-08T02:35:31;98358.91;;;7.59;nan
113;BME280;45999;48.808;9.182;2023-04-08T02:37:57;98366.06;;;7.58;nan
113;BME280;45999;48.808;9.182;2023-04-08T02:40:29;98354.03;;;7.56;nan
113;BME280;45999;48.808;9.182;2023-04-08T02:42:56;98352.59;;;7.53;nan
113;BME280;45999;48.808;9.182;2023-04-08T02:45:29;98363.19;;;7.53;nan
113;BME280;45999;48.808;9.182;2023-04-08T02:47:57;98359.19;;;7.64;nan
113;BME280;45999;48.808;9.182;2023-04-08T02:50:25;98354.22;;;7.54;nan
113;BME280;45999;48.808;9.182;2023-04-08T02:52:51;98356.88;;;7.54;nan
113;BME280;45999;48.808;9.182;2023-04-08T02:55:17;98352.78;;;7.52;nan
113;BME280;45999;48.808;9.182;2023-04-08T02:57:46;98353.16;;;7.49;nan
113;BME280;45999;48.808;9.182;2023-04-08T03:00:13;98355.78;;;7.49;nan
113;BME280;45999;48.808;9.182;2023-04-08T03:02:40;98350.50;;;7.49;nan
113;BME280;45999;48.808;9.182;2023-04-08T03:05:07;98349.94;;;7.53;nan
113;BME280;45999;48.808;9.182;2023-04-08T03:07:34;98360.91;;;7.50;nan
113;BME280;45999;48.808;9.182;2023-04-08T03:10:02;98356.34;;;7.38;nan
113;BME280;45999;48.808;9.182;2023-04-08T03:12:28;98352.66;;;7.39;nan
113;BME280;45999;48.808;9.182;2023-04-08T03:14:55;98356.72;;;7.35;nan
113;BME280;45999;48.808;9.182;2023-04-08T03:17:21;98358.16;;;7.37;nan
113;BME280;45999;48.808;9.182;2023-04-08T03:19:48;98355.69;;;7.36;nan
113;BME280;45999;48.808;9.182;2023-04-08T03:22:14;98362.00;;;7.35;nan
113;BME280;45999;48.808;9.182;2023-04-08T03:24:41;98357.34;;;7.37;nan
113;BME280;45999;48.808;9.182;2023-04-08T03:27:07;98360.31;;;7.27;nan
113;BME280;45999;48.808;9.182;2023-04-08T03:29:34;98358.34;;;7.36;nan
113;BME280;45999;48.808;9.182;2023-04-08T03:32:00;98367.47;;;7.33;nan
113;BME280;45999;48.808;9.182;2023-04-08T03:34:26;98354.72;;;7.37;nan
113;BME280;45999;48.808;9.182;2023-04-08T03:36:53;98363.06;;;7.40;nan
113;BME280;45999;48.808;9.182;2023-04-08T03:39:19;98365.91;;;7.39;nan
113;BME280;45999;48.808;9.182;2023-04-08T03:41:45;98368.16;;;7.42;nan
113;BME280;45999;48.808;9.182;2023-04-08T03:44:12;98363.69;;;7.42;nan
113;BME280;45999;48.808;9.182;2023-04-08T03:46:38;98368.91;;;7.36;nan
113;BME280;45999;48.808;9.182;2023-04-08T03:49:04;98362.81;;;7.35;nan
113;BME280;45999;48.808;9.182;2023-04-08T03:51:31;98363.63;;;7.36;nan
113;BME280;45999;48.808;9.182;2023-04-08T03:53:58;98369.09;;;7.34;nan
113;BME280;45999;48.808;9.182;2023-04-08T03:56:24;98374.97;;;7.30;nan
113;BME280;45999;48.808;9.182;2023-04-08T03:58:51;98366.66;;;7.33;nan
113;BME280;45999;48.808;9.182;2023-04-08T04:01:17;98369.31;;;7.33;nan
113;BME280;45999;48.808;9.182;2023-04-08T04:03:43;98368.91;;;7.36;nan
113;BME280;45999;48.808;9.182;2023-04-08T04:06:10;98369.69;;;7.30;nan
113;BME280;45999;48.808;9.182;2023-04-08T04:08:36;98362.78;;;7.29;nan
113;BME280;45999;48.808;9.182;2023-04-08T04:11:03;98359.47;;;7.27;nan
113;BME280;45999;48.808;9.182;2023-04-08T04:13:29;98363.13;;;7.26;nan
113;BME280;45999;48.808;9.182;2023-04-08T04:15:56;98360.69;;;7.24;nan
113;BME280;45999;48.808;9.182;2023-04-08T04:18:22;98359.47;;;7.27;nan
113;BME280;45999;48.808;9.182;2023-04-08T04:20:48;98362.66;;;7.16;nan
113;BME280;45999;48.808;9.182;2023-04-08T04:23:15;98362.59;;;7.09;nan
113;BME280;45999;48.808;9.182;2023-04-08T04:25:41;98363.41;;;7.10;nan
113;BME280;45999;48.808;9.182;2023-04-08T04:28:08;98368.25;;;7.06;nan
113;BME280;45999;48.808;9.182;2023-04-08T04:30:38;98368.56;;;6.97;nan
113;BME280;45999;48.808;9.182;2023-04-08T04:33:05;98369.56;;;6.96;nan
113;BME280;45999;48.808;9.182;2023-04-08T04:35:32;98370.22;;;6.98;nan
113;BME280;45999;48.808;9.182;2023-04-08T04:37:58;98368.31;;;6.92;nan
113;BME280;45999;48.808;9.182;2023-04-08T04:40:25;98372.97;;;6.90;nan
113;BME280;45999;48.808;9.182;2023-04-08T04:42:52;98370.50;;;6.88;nan
113;BME280;45999;48.808;9.182;2023-04-08T04:45:18;98376.97;;;6.86;nan
113;BME280;45999;48.808;9.182;2023-04-08T04:47:44;98383.38;;;6.77;nan
113;BME280;45999;48.808;9.182;2023-04-08T04:50:11;98385.78;;;6.72;nan
113;BME280;45999;48.808;9.182;2023-04-08T04:52:37;98382.69;;;6.68;nan
113;BME280;45999;48.808;9.182;2023-04-08T04:55:04;98387.22;;;6.74;nan
113;BME280;45999;48.808;9.182;2023-04-08T04:57:30;98385.25;;;6.62;nan
113;BME280;45999;48.808;9.182;2023-04-08T04:59:57;98394.72;;;6.71;nan
113;BME280;45999;48.808;9.182;2023-04-08T05:02:23;98388.13;;;6.81;nan
113;BME280;45999;48.808;9.182;2023-04-08T05:04:50;98394.13;;;6.75;nan
113;BME280;45999;48.808;9.182;2023-04-08T05:07:17;98400.44;;;6.74;nan
113;BME280;45999;48.808;9.182;2023-04-08T05:09:44;98403.16;;;6.81;nan
113;BME280;45999;48.808;9.182;2023-04-08T05:12:10;98400.06;;;6.77;nan
113;BME280;45999;48.808;9.182;2023-04-08T05:14:37;98407.75;;;6.72;nan
113;BME280;45999;48.808;9.182;2023-04-08T05:17:03;98409.44;;;6.80;nan
113;BME280;45999;48.808;9.182;2023-04-08T05:19:30;98405.78;;;6.81;nan
113;BME280;45999;48.808;9.182;2023-04-08T05:21:56;98412.28;;;6.78;nan
113;BME280;45999;48.808;9.182;2023-04-08T05:24:23;98408.19;;;6.76;nan
113;BME280;45999;48.808;9.182;2023-04-08T05:26:49;98417.19;;;6.81;nan
113;BME280;45999;48.808;9.182;2023-04-08T05:29:17;98422.66;;;6.80;nan
113;BME280;45999;48.808;9.182;2023-04-08T05:31:45;98421.09;;;6.85;nan
113;BME280;45999;48.808;9.182;2023-04-08T05:34:12;98420.28;;;6.85;nan
113;BME280;45999;48.808;9.182;2023-04-08T05:36:39;98419.03;;;7.02;nan
113;BME280;45999;48.808;9.182;2023-04-08T05:39:06;98422.16;;;6.91;nan
113;BME280;45999;48.808;9.182;2023-04-08T05:41:32;98433.13;;;6.88;nan
113;BME280;45999;48.808;9.182;2023-04-08T05:43:59;98432.81;;;6.97;nan
113;BME280;45999;48.808;9.182;2023-04-08T05:46:25;98434.66;;;6.97;nan
113;BME280;45999;48.808;9.182;2023-04-08T05:48:51;98433.63;;;6.98;nan
113;BME280;45999;48.808;9.182;2023-04-08T05:51:18;98428.00;;;7.01;nan
113;BME280;45999;48.808;9.182;2023-04-08T05:53:44;98443.84;;;7.01;nan
113;BME280;45999;48.808;9.182;2023-04-08T05:56:11;98433.59;;;7.12;nan
113;BME280;45999;48.808;9.182;2023-04-08T05:58:38;98438.16;;;7.04;nan
113;BME280;45999;48.808;9.182;2023-04-08T06:01:04;98438.41;;;7.09;nan
113;BME280;45999;48.808;9.182;2023-04-08T06:03:31;98446.34;;;7.09;nan
113;BME280;45999;48.808;9.182;2023-04-08T06:05:58;98443.97;;;7.14;nan
113;BME280;45999;48.808;9.182;2023-04-08T06:08:24;98445.47;;;7.23;nan
113;BME280;45999;48.808;9.182;2023-04-08T06:10:51;98446.50;;;7.22;nan
113;BME280;45999;48.808;9.182;2023-04-08T06:13:17;98447.75;;;7.26;nan
113;BME280;45999;48.808;9.182;2023-04-08T06:15:45;98448.53;;;7.20;nan
113;BME280;45999;48.808;9.182;2023-04-08T06:18:13;98444.75;;;7.29;nan
113;BME280;45999;48.808;9.182;2023-04-08T06:20:40;98454.56;;;7.35;nan
113;BME280;45999;48.808;9.182;2023-04-08T06:23:06;98457.09;;;7.43;nan
113;BME280;45999;48.808;9.182;2023-04-08T06:25:32;98461.00;;;7.47;nan
113;BME280;45999;48.808;9.182;2023-04-08T06:27:59;98460.69;;;7.35;nan
113;BME280;45999;48.808;9.182;2023-04-08T06:30:25;98459.38;;;7.46;nan
113;BME280;45999;48.808;9.182;2023-04-08T06:32:51;98456.72;;;7.46;nan
113;BME280;45999;48.808;9.182;2023-04-08T06:35:18;98454.56;;;7.56;nan
113;BME280;45999;48.808;9.182;2023-04-08T06:37:44;98459.47;;;7.59;nan
113;BME280;45999;48.808;9.182;2023-04-08T06:40:12;98469.19;;;7.52;nan
113;BME280;45999;48.808;9.182;2023-04-08T06:42:38;98464.69;;;7.52;nan
113;BME280;45999;48.808;9.182;2023-04-08T06:45:07;98471.25;;;7.56;nan
113;BME280;45999;48.808;9.182;2023-04-08T06:47:33;98473.94;;;7.84;nan
113;BME280;45999;48.808;9.182;2023-04-08T06:50:00;98474.66;;;7.71;nan
113;BME280;45999;48.808;9.182;2023-04-08T06:52:26;98481.41;;;7.74;nan
113;BME280;45999;48.808;9.182;2023-04-08T06:54:53;98476.03;;;7.67;nan
113;BME280;45999;48.808;9.182;2023-04-08T06:57:19;98487.81;;;7.65;nan
113;BME280;45999;48.808;9.182;2023-04-08T06:59:45;98484.09;;;7.59;nan
113;BME280;45999;48.808;9.182;2023-04-08T07:02:12;98481.94;;;7.69;nan
113;BME280;45999;48.808;9.182;2023-04-08T07:04:38;98487.34;;;7.82;nan
113;BME280;45999;48.808;9.182;2023-04-08T07:07:04;98495.47;;;8.02;nan
113;BME280;45999;48.808;9.182;2023-04-08T07:09:31;98488.13;;;8.04;nan
113;BME280;45999;48.808;9.182;2023-04-08T07:11:57;98489.53;;;8.00;nan
113;BME280;45999;48.808;9.182;2023-04-08T07:14:24;98496.06;;;8.25;nan
113;BME280;45999;48.808;9.182;2023-04-08T07:16:50;98490.47;;;8.13;nan
113;BME280;45999;48.808;9.182;2023-04-08T07:19:16;98499.47;;;8.19;nan
113;BME280;45999;48.808;9.182;2023-04-08T07:21:43;98499.66;;;8.45;nan
113;BME280;45999;48.808;9.182;2023-04-08T07:24:09;98495.72;;;8.07;nan
113;BME280;45999;48.808;9.182;2023-04-08T07:26:37;98506.41;;;8.20;nan
113;BME280;45999;48.808;9.182;2023-04-08T07:29:03;98498.66;;;8.46;nan
113;BME280;45999;48.808;9.182;2023-04-08T07:31:29;98495.22;;;8.52;nan
113;BME280;45999;48.808;9.182;2023-04-08T07:33:56;98498.94;;;8.57;nan
113;BME280;45999;48.808;9.182;2023-04-08T07:36:22;98501.25;;;8.73;nan
113;BME280;45999;48.808;9.182;2023-04-08T07:38:48;98505.78;;;8.86;nan
113;BME280;45999;48.808;9.182;2023-04-08T07:41:15;98519.06;;;8.86;nan
113;BME280;45999;48.808;9.182;2023-04-08T07:43:42;98509.75;;;9.03;nan
113;BME280;45999;48.808;9.182;2023-04-08T07:46:08;98512.19;;;8.98;nan
113;BME280;45999;48.808;9.182;2023-04-08T07:48:34;98518.78;;;9.15;nan
113;BME280;45999;48.808;9.182;2023-04-08T07:51:05;98523.06;;;9.16;nan
113;BME280;45999;48.808;9.182;2023-04-08T07:53:32;98526.94;;;9.13;nan
113;BME280;45999;48.808;9.182;2023-04-08T07:55:59;98517.50;;;9.04;nan
113;BME280;45999;48.808;9.182;2023-04-08T07:58:28;98520.31;;;8.96;nan
113;BME280;45999;48.808;9.182;2023-04-08T08:00:56;98514.22;;;8.96;nan
113;BME280;45999;48.808;9.182;2023-04-08T08:03:22;98522.00;;;9.10;nan
113;BME280;45999;48.808;9.182;2023-04-08T08:05:49;98528.88;;;9.45;nan
113;BME280;45999;48.808;9.182;2023-04-08T08:08:15;98531.34;;;9.47;nan
113;BME280;45999;48.808;9.182;2023-04-08T08:10:42;98534.81;;;8.94;nan
113;BME280;45999;48.808;9.182;2023-04-08T08:13:08;98530.84;;;9.17;nan
113;BME280;45999;48.808;9.182;2023-04-08T08:15:36;98535.78;;;9.40;nan
113;BME280;45999;48.808;9.182;2023-04-08T08:18:02;98532.91;;;9.35;nan
113;BME280;45999;48.808;9.182;2023-04-08T08:20:29;98537.25;;;9.49;nan
113;BME280;45999;48.808;9.182;2023-04-08T08:22:55;98536.66;;;9.53;nan
113;BME280;45999;48.808;9.182;2023-04-08T08:25:21;98538.28;;;9.54;nan
113;BME280;45999;48.808;9.182;2023-04-08T08:27:48;98538.69;;;9.51;nan
113;BME280;45999;48.808;9.182;2023-04-08T08:30:15;98538.53;;;9.66;nan
113;BME280;45999;48.808;9.182;2023-04-08T08:32:43;98537.53;;;9.07;nan
113;BME280;45999;48.808;9.182;2023-04-08T08:35:11;98538.22;;;9.35;nan
113;BME280;45999;48.808;9.182;2023-04-08T08:37:37;98540.63;;;9.23;nan
113;BME280;45999;48.808;9.182;2023-04-08T08:40:04;98540.94;;;9.48;nan
113;BME280;45999;48.808;9.182;2023-04-08T08:42:31;98541.78;;;9.74;nan
113;BME280;45999;48.808;9.182;2023-04-08T19:51:30;98800.56;;;8.68;nan
113;BME280;45999;48.808;9.182;2023-04-08T19:53:57;98799.94;;;8.66;nan
113;BME280;45999;48.808;9.182;2023-04-08T19:56:23;98789.50;;;8.65;nan
113;BME280;45999;48.808;9.182;2023-04-08T19:58:50;98789.69;;;8.63;nan
113;BME280;45999;48.808;9.182;2023-04-08T20:01:17;98795.19;;;8.62;nan
113;BME280;45999;48.808;9.182;2023-04-08T20:03:43;98798.47;;;8.64;nan
113;BME280;45999;48.808;9.182;2023-04-08T20:06:17;98793.72;;;8.59;nan
113;BME280;45999;48.808;9.182;2023-04-08T20:08:44;98795.06;;;8.70;nan
113;BME280;45999;48.808;9.182;2023-04-08T20:11:11;98800.13;;;8.65;nan
113;BME280;45999;48.808;9.182;2023-04-08T20:13:37;98794.16;;;8.63;nan
113;BME280;45999;48.808;9.182;2023-04-08T20:16:04;98792.53;;;8.62;nan
113;BME280;45999;48.808;9.182;2023-04-08T20:18:31;98797.56;;;8.57;nan
113;BME280;45999;48.808;9.182;2023-04-08T20:20:57;98793.28;;;8.56;nan
113;BME280;45999;48.808;9.182;2023-04-08T20:23:24;98798.19;;;8.59;nan
113;BME280;45999;48.808;9.182;2023-04-08T20:25:51;98800.22;;;8.57;nan
113;BME280;45999;48.808;9.182;2023-04-08T20:28:18;98795.94;;;8.56;nan
113;BME280;45999;48.808;9.182;2023-04-08T20:30:45;98797.94;;;8.54;nan
113;BME280;45999;48.808;9.182;2023-04-08T20:33:12;98799.97;;;8.52;nan
113;BME280;45999;48.808;9.182;2023-04-08T20:35:38;98801.78;;;8.51;nan
113;BME280;45999;48.808;9.182;2023-04-08T20:38:04;98802.63;;;8.52;nan
113;BME280;45999;48.808;9.182;2023-04-08T20:40:31;98801.19;;;8.49;nan
113;BME280;45999;48.808;9.182;2023-04-08T20:42:57;98806.84;;;8.46;nan
113;BME280;45999;48.808;9.182;2023-04-08T20:45:23;98802.03;;;8.56;nan
113;BME280;45999;48.808;9.182;2023-04-08T20:47:50;98803.06;;;8.55;nan
113;BME280;45999;48.808;9.182;2023-04-08T20:50:18;98800.81;;;8.52;nan
113;BME280;45999;48.808;9.182;2023-04-08T20:52:44;98799.13;;;8.51;nan
113;BME280;45999;48.808;9.182;2023-04-08T20:55:11;98802.44;;;8.53;nan
113;BME280;45999;48.808;9.182;2023-04-08T20:57:38;98804.06;;;8.54;nan
113;BME280;45999;48.808;9.182;2023-04-08T21:00:05;98799.31;;;8.50;nan
113;BME280;45999;48.808;9.182;2023-04-08T21:02:32;98796.50;;;8.51;nan
113;BME280;45999;48.808;9.182;2023-04-08T21:04:58;98798.88;;;8.46;nan
113;BME280;45999;48.808;9.182;2023-04-08T21:07:25;98794.78;;;8.44;nan
113;BME280;45999;48.808;9.182;2023-04-08T21:09:51;98798.81;;;8.40;nan
113;BME280;45999;48.808;9.182;2023-04-08T21:12:18;98796.56;;;8.37;nan
113;BME280;45999;48.808;9.182;2023-04-08T21:14:44;98805.41;;;8.29;nan
113;BME280;45999;48.808;9.182;2023-04-08T21:17:11;98802.31;;;8.26;nan
113;BME280;45999;48.808;9.182;2023-04-08T21:19:37;98792.13;;;8.23;nan
113;BME280;45999;48.808;9.182;2023-04-08T21:22:04;98798.75;;;8.19;nan
113;BME280;45999;48.808;9.182;2023-04-08T21:24:30;98798.28;;;8.15;nan
113;BME280;45999;48.808;9.182;2023-04-08T21:26:56;98794.19;;;8.13;nan
113;BME280;45999;48.808;9.182;2023-04-08T21:29:23;98785.97;;;8.08;nan
113;BME280;45999;48.808;9.182;2023-04-08T21:31:49;98797.94;;;8.04;nan
113;BME280;45999;48.808;9.182;2023-04-08T21:34:15;98793.22;;;7.99;nan
113;BME280;45999;48.808;9.182;2023-04-08T21:36:42;98791.75;;;7.97;nan
113;BME280;45999;48.808;9.182;2023-04-08T21:39:08;98786.81;;;7.94;nan
113;BME280;45999;48.808;9.182;2023-04-08T21:41:35;98797.16;;;7.89;nan
113;BME280;45999;48.808;9.182;2023-04-08T21:44:01;98792.84;;;7.88;nan
113;BME280;45999;48.808;9.182;2023-04-08T21:46:27;98783.81;;;7.82;nan
113;BME280;45999;48.808;9.182;2023-04-08T21:48:54;98793.69;;;7.74;nan
113;BME280;45999;48.808;9.182;2023-04-08T21:51:20;98791.03;;;7.74;nan
113;BME280;45999;48.808;9.182;2023-04-08T21:53:46;98787.13;;;7.70;nan
113;BME280;45999;48.808;9.182;2023-04-08T21:56:13;98793.03;;;7.72;nan
113;BME280;45999;48.808;9.182;2023-04-08T21:58:39;98794.69;;;7.73;nan
113;BME280;45999;48.808;9.182;2023-04-08T22:01:05;98789.78;;;7.70;nan
113;BME280;45999;48.808;9.182;2023-04-08T22:03:32;98793.88;;;7.72;nan
113;BME280;45999;48.808;9.182;2023-04-08T22:05:59;98795.31;;;7.75;nan
113;BME280;45999;48.808;9.182;2023-04-08T22:08:25;98793.69;;;7.74;nan
113;BME280;45999;48.808;9.182;2023-04-08T22:10:51;98794.31;;;7.76;nan
113;BME280;45999;48.808;9.182;2023-04-08T22:13:18;98786.09;;;7.71;nan
113;BME280;45999;48.808;9.182;2023-04-08T22:15:45;98792.16;;;7.65;nan
113;BME280;45999;48.808;9.182;2023-04-08T22:18:11;98790.88;;;7.61;nan
113;BME280;45999;48.808;9.182;2023-04-08T22:20:38;98784.28;;;7.57;nan
113;BME280;45999;48.808;9.182;2023-04-08T22:23:04;98791.28;;;7.50;nan
113;BME280;45999;48.808;9.182;2023-04-08T22:25:30;98784.66;;;7.39;nan
113;BME280;45999;48.808;9.182;2023-04-08T22:27:57;98783.25;;;7.29;nan
113;BME280;45999;48.808;9.182;2023-04-08T22:30:23;98787.63;;;7.22;nan
113;BME280;45999;48.808;9.182;2023-04-08T22:32:49;98788.16;;;7.17;nan
113;BME280;45999;48.808;9.182;2023-04-08T22:35:16;98784.25;;;7.13;nan
113;BME280;45999;48.808;9.182;2023-04-08T22:37:42;98790.25;;;7.07;nan
113;BME280;45999;48.808;9.182;2023-04-08T22:40:09;98786.78;;;7.07;nan
113;BME280;45999;48.808;9.182;2023-04-08T22:42:35;98781.38;;;7.00;nan
113;BME280;45999;48.808;9.182;2023-04-08T22:45:01;98783.03;;;7.01;nan
113;BME280;45999;48.808;9.182;2023-04-08T22:47:29;98786.66;;;7.00;nan
113;BME280;45999;48.808;9.182;2023-04-08T22:49:55;98783.19;;;7.00;nan
113;BME280;45999;48.808;9.182;2023-04-08T22:52:21;98782.22;;;7.01;nan
113;BME280;45999;48.808;9.182;2023-04-08T22:54:48;98784.47;;;7.04;nan
113;BME280;45999;48.808;9.182;2023-04-08T22:57:14;98786.94;;;7.05;nan
113;BME280;45999;48.808;9.182;2023-04-08T22:59:40;98783.47;;;7.05;nan
113;BME280;45999;48.808;9.182;2023-04-08T23:02:07;98784.13;;;7.07;nan
113;BME280;45999;48.808;9.182;2023-04-08T23:04:33;98780.66;;;7.06;nan
113;BME280;45999;48.808;9.182;2023-04-08T23:06:59;98777.84;;;7.08;nan
113;BME280;45999;48.808;9.182;2023-04-08T23:09:26;98778.28;;;7.11;nan
113;BME280;45999;48.808;9.182;2023-04-08T23:11:52;98782.41;;;7.14;nan
113;BME280;45999;48.808;9.182;2023-04-08T23:14:19;98775.97;;;7.16;nan
113;BME280;45999;48.808;9.182;2023-04-08T23:16:45;98778.88;;;7.21;nan
113;BME280;45999;48.808;9.182;2023-04-08T23:19:19;98776.25;;;7.21;100.00
113;BME280;45999;48.808;9.182;2023-04-08T23:21:46;98785.34;;;7.19;100.00
113;BME280;45999;48.808;9.182;2023-04-08T23:24:12;98775.41;;;7.21;100.00
113;BME280;45999;48.808;9.182;2023-04-08T23:26:39;98774.41;;;7.22;100.00
113;BME280;45999;48.808;9.182;2023-04-08T23:29:05;98780.53;;;7.22;100.00
113;BME280;45999;48.808;9.182;2023-04-08T23:31:31;98787.63;;;7.22;100.00
113;BME280;45999;48.808;9.182;2023-04-08T23:33:58;98770.94;;;7.21;100.00
113;BME280;45999;48.808;9.182;2023-04-08T23:36:25;98781.69;;;7.20;100.00
113;BME280;45999;48.808;9.182;2023-04-08T23:38:52;98778.88;;;7.21;100.00
113;BME280;45999;48.808;9.182;2023-04-08T23:41:18;98779.34;;;7.25;100.00
113;BME280;45999;48.808;9.182;2023-04-08T23:43:45;98779.16;;;7.26;100.00
113;BME280;45999;48.808;9.182;2023-04-08T23:46:11;98776.03;;;7.23;100.00
113;BME280;45999;48.808;9.182;2023-04-08T23:48:37;98779.22;;;7.18;100.00
113;BME280;45999;48.808;9.182;2023-04-08T23:51:04;98776.75;;;7.17;100.00
113;BME280;45999;48.808;9.182;2023-04-08T23:53:30;98777.94;;;7.14;100.00
113;BME280;45999;48.808;9.182;2023-04-08T23:56:07;98775.31;;;7.14;100.00
113;BME280;45999;48.808;9.182;2023-04-08T23:58:34;98779.75;;;7.14;100.00
